createdAt,value
2018-09-25T00:00:31.497Z,0.00
2018-09-25T00:01:31.488Z,0.00
2018-09-25T00:03:32.601Z,0.00
2018-09-25T00:04:31.471Z,0.00
2018-09-25T00:05:31.445Z,0.00
2018-09-25T00:06:31.436Z,0.00
2018-09-25T00:08:32.605Z,0.00
2018-09-25T00:09:31.428Z,0.00
2018-09-25T00:10:31.401Z,0.00
2018-09-25T00:11:31.376Z,0.00
2018-09-25T00:13:32.519Z,0.00
2018-09-25T00:15:32.486Z,0.00
2018-09-25T00:16:31.325Z,0.00
2018-09-25T00:17:31.309Z,0.00
2018-09-25T00:18:31.318Z,0.00
2018-09-25T00:20:32.411Z,0.00
2018-09-25T00:21:31.265Z,0.00
2018-09-25T00:22:31.255Z,0.00
2018-09-25T00:23:31.328Z,0.00
2018-09-25T00:24:31.231Z,0.00
2018-09-25T00:25:31.223Z,0.00
2018-09-25T00:26:31.236Z,0.00
2018-09-25T00:27:31.215Z,0.00
2018-09-25T00:29:32.337Z,0.00
2018-09-25T00:30:31.164Z,0.00
2018-09-25T00:31:31.151Z,0.00
2018-09-25T00:32:31.140Z,0.00
2018-09-25T00:33:31.135Z,0.00
2018-09-25T00:35:32.247Z,0.00
2018-09-25T00:37:32.223Z,0.00
2018-09-25T00:38:31.085Z,0.00
2018-09-25T00:39:31.091Z,0.00
2018-09-25T00:40:31.057Z,0.00
2018-09-25T00:41:31.045Z,0.00
2018-09-25T00:42:31.034Z,0.00
2018-09-25T00:43:31.024Z,0.00
2018-09-25T00:44:31.036Z,0.00
2018-09-25T00:45:30.994Z,0.00
2018-09-25T00:46:30.987Z,0.00
2018-09-25T00:47:30.999Z,0.00
2018-09-25T00:48:30.967Z,0.00
2018-09-25T00:50:32.112Z,0.00
2018-09-25T00:52:32.070Z,0.00
2018-09-25T00:53:30.908Z,0.00
2018-09-25T00:54:30.969Z,0.00
2018-09-25T00:55:30.880Z,0.00
2018-09-25T00:56:30.871Z,0.00
2018-09-25T00:59:31.999Z,0.00
2018-09-25T01:00:30.830Z,0.00
2018-09-25T01:01:30.819Z,0.00
2018-09-25T01:02:30.810Z,0.00
2018-09-25T01:03:30.797Z,0.00
2018-09-25T01:04:30.780Z,0.00
2018-09-25T01:05:30.791Z,0.00
2018-09-25T01:07:31.909Z,0.00
2018-09-25T01:08:30.733Z,0.00
2018-09-25T01:09:30.725Z,0.00
2018-09-25T01:10:30.742Z,0.00
2018-09-25T01:11:30.725Z,0.00
2018-09-25T01:12:30.697Z,0.00
2018-09-25T01:13:30.688Z,0.00
2018-09-25T01:14:30.684Z,0.00
2018-09-25T01:15:30.680Z,0.00
2018-09-25T01:16:30.655Z,0.00
2018-09-25T01:17:30.634Z,0.00
2018-09-25T01:18:30.645Z,0.00
2018-09-25T01:19:30.628Z,0.00
2018-09-25T01:20:30.621Z,0.00
2018-09-25T01:21:30.597Z,0.00
2018-09-25T01:22:30.589Z,0.00
2018-09-25T01:23:30.571Z,0.00
2018-09-25T01:26:31.680Z,0.00
2018-09-25T01:27:30.535Z,0.00
2018-09-25T01:29:31.635Z,0.00
2018-09-25T01:30:30.505Z,0.00
2018-09-25T01:31:30.477Z,0.00
2018-09-25T01:32:30.479Z,0.00
2018-09-25T01:33:30.460Z,0.00
2018-09-25T01:35:31.598Z,0.00
2018-09-25T01:36:30.426Z,0.00
2018-09-25T01:37:30.423Z,0.00
2018-09-25T01:39:31.532Z,0.00
2018-09-25T01:40:30.392Z,0.00
2018-09-25T01:41:30.382Z,0.00
2018-09-25T01:42:30.354Z,0.00
2018-09-25T01:43:30.348Z,0.00
2018-09-25T01:46:31.489Z,0.00
2018-09-25T01:47:30.304Z,0.00
2018-09-25T01:48:30.289Z,0.00
2018-09-25T01:49:30.287Z,0.00
2018-09-25T01:50:30.265Z,0.00
2018-09-25T01:51:30.295Z,0.00
2018-09-25T01:52:30.239Z,0.00
2018-09-25T01:53:30.233Z,0.00
2018-09-25T01:54:30.221Z,0.00
2018-09-25T01:55:30.207Z,0.00
2018-09-25T01:56:30.221Z,0.00
2018-09-25T01:57:30.204Z,0.00
2018-09-25T01:58:30.194Z,0.00
2018-09-25T01:59:30.161Z,0.00
2018-09-25T02:00:30.160Z,0.00
2018-09-25T02:02:31.268Z,0.00
2018-09-25T02:03:30.114Z,0.00
2018-09-25T02:04:30.115Z,0.00
2018-09-25T02:05:30.103Z,0.00
2018-09-25T02:06:30.120Z,0.00
2018-09-25T02:08:31.210Z,0.00
2018-09-25T02:09:30.046Z,0.00
2018-09-25T02:11:31.204Z,0.00
2018-09-25T02:12:30.015Z,0.00
2018-09-25T02:13:30.000Z,0.00
2018-09-25T02:15:31.136Z,0.00
2018-09-25T02:17:31.122Z,0.00
2018-09-25T02:18:29.945Z,0.00
2018-09-25T02:19:29.940Z,0.00
2018-09-25T02:22:31.150Z,0.00
2018-09-25T02:24:31.029Z,0.00
2018-09-25T02:25:29.885Z,0.00
2018-09-25T02:28:30.978Z,0.00
2018-09-25T02:29:29.825Z,0.00
2018-09-25T02:30:29.822Z,0.00
2018-09-25T02:31:29.808Z,0.00
2018-09-25T02:32:29.817Z,0.00
2018-09-25T02:33:29.787Z,0.00
2018-09-25T02:34:29.766Z,0.00
2018-09-25T02:35:29.763Z,0.00
2018-09-25T02:36:29.755Z,0.00
2018-09-25T02:37:29.760Z,0.00
2018-09-25T02:38:29.726Z,0.00
2018-09-25T02:39:29.709Z,0.00
2018-09-25T02:40:29.714Z,0.00
2018-09-25T02:41:29.685Z,0.00
2018-09-25T02:42:29.695Z,0.00
2018-09-25T02:43:29.670Z,0.00
2018-09-25T02:44:29.671Z,0.00
2018-09-25T02:45:29.650Z,0.00
2018-09-25T02:47:30.781Z,0.00
2018-09-25T02:48:29.621Z,0.00
2018-09-25T02:49:29.596Z,0.00
2018-09-25T02:50:29.581Z,0.00
2018-09-25T02:51:29.586Z,0.00
2018-09-25T02:52:29.581Z,0.00
2018-09-25T02:54:30.683Z,0.00
2018-09-25T02:55:29.526Z,0.00
2018-09-25T02:56:29.535Z,0.00
2018-09-25T02:57:29.513Z,0.00
2018-09-25T02:58:29.514Z,0.00
2018-09-25T02:59:29.491Z,0.00
2018-09-25T03:00:29.475Z,0.00
2018-09-25T03:01:29.469Z,0.00
2018-09-25T03:02:29.474Z,0.00
2018-09-25T03:03:29.460Z,0.00
2018-09-25T03:04:29.428Z,0.00
2018-09-25T03:05:29.443Z,0.00
2018-09-25T03:06:29.408Z,0.00
2018-09-25T03:07:29.391Z,0.00
2018-09-25T03:08:29.415Z,0.00
2018-09-25T03:09:29.377Z,0.00
2018-09-25T03:10:29.373Z,0.00
2018-09-25T03:11:29.355Z,0.00
2018-09-25T03:12:29.343Z,0.00
2018-09-25T03:13:29.345Z,0.00
2018-09-25T03:14:29.326Z,0.00
2018-09-25T03:16:30.448Z,0.00
2018-09-25T03:17:29.298Z,0.00
2018-09-25T03:18:29.319Z,0.00
2018-09-25T03:19:29.259Z,0.00
2018-09-25T03:20:29.247Z,0.00
2018-09-25T03:21:29.240Z,0.00
2018-09-25T03:22:29.247Z,0.00
2018-09-25T03:23:29.250Z,0.00
2018-09-25T03:24:29.201Z,0.00
2018-09-25T03:25:29.194Z,0.00
2018-09-25T03:26:29.196Z,0.00
2018-09-25T03:27:29.172Z,0.00
2018-09-25T03:29:30.320Z,0.00
2018-09-25T03:32:30.844Z,0.00
2018-09-25T03:33:29.103Z,0.00
2018-09-25T03:34:29.124Z,0.00
2018-09-25T03:36:30.200Z,0.00
2018-09-25T03:38:30.184Z,0.00
2018-09-25T03:40:30.157Z,0.00
2018-09-25T03:41:29.027Z,0.00
2018-09-25T03:42:29.025Z,0.00
2018-09-25T03:43:28.987Z,0.00
2018-09-25T03:45:30.131Z,0.00
2018-09-25T03:46:28.956Z,0.00
2018-09-25T03:47:28.939Z,0.00
2018-09-25T03:48:28.927Z,0.00
2018-09-25T03:49:28.973Z,0.00
2018-09-25T03:50:28.906Z,0.00
2018-09-25T03:51:28.906Z,0.00
2018-09-25T03:52:28.884Z,0.00
2018-09-25T03:53:28.877Z,0.00
2018-09-25T03:54:28.904Z,0.00
2018-09-25T03:55:28.868Z,0.00
2018-09-25T03:56:28.835Z,0.00
2018-09-25T03:57:28.842Z,0.00
2018-09-25T03:59:29.978Z,0.00
2018-09-25T04:00:28.866Z,0.00
2018-09-25T04:02:29.941Z,0.00
2018-09-25T04:03:28.767Z,0.00
2018-09-25T04:05:29.919Z,0.00
2018-09-25T04:06:28.743Z,0.00
2018-09-25T04:07:28.717Z,0.00
2018-09-25T04:08:28.706Z,0.00
2018-09-25T04:09:28.693Z,0.00
2018-09-25T04:10:28.725Z,0.00
2018-09-25T04:12:29.826Z,0.00
2018-09-25T04:13:28.645Z,0.00
2018-09-25T04:14:28.644Z,0.00
2018-09-25T04:16:29.797Z,0.00
2018-09-25T04:17:28.607Z,0.00
2018-09-25T04:18:28.594Z,0.00
2018-09-25T04:19:28.585Z,0.00
2018-09-25T04:20:28.588Z,0.00
2018-09-25T04:21:28.561Z,0.00
2018-09-25T04:22:28.553Z,0.00
2018-09-25T04:23:28.534Z,0.00
2018-09-25T04:24:28.523Z,0.00
2018-09-25T04:25:28.562Z,0.00
2018-09-25T04:27:29.628Z,0.00
2018-09-25T04:28:28.520Z,0.00
2018-09-25T04:31:29.653Z,0.00
2018-09-25T04:32:28.455Z,0.00
2018-09-25T04:33:28.427Z,0.00
2018-09-25T04:36:29.547Z,0.00
2018-09-25T04:37:28.394Z,0.00
2018-09-25T04:38:28.379Z,0.00
2018-09-25T04:39:28.365Z,0.00
2018-09-25T04:40:28.362Z,0.00
2018-09-25T04:41:28.361Z,0.00
2018-09-25T04:43:29.457Z,0.00
2018-09-25T04:44:28.319Z,0.00
2018-09-25T04:45:28.289Z,0.00
2018-09-25T04:46:28.299Z,0.00
2018-09-25T04:47:28.300Z,0.00
2018-09-25T04:48:28.266Z,0.00
2018-09-25T04:49:28.243Z,0.00
2018-09-25T04:50:28.258Z,0.00
2018-09-25T04:51:28.235Z,0.00
2018-09-25T04:52:28.243Z,0.00
2018-09-25T04:53:28.198Z,4.00
2018-09-25T04:54:28.186Z,4.00
2018-09-25T04:55:28.183Z,0.00
2018-09-25T04:58:29.287Z,4.00
2018-09-25T04:59:28.134Z,4.00
2018-09-25T05:00:28.149Z,8.00
2018-09-25T05:01:28.126Z,8.00
2018-09-25T05:02:28.139Z,8.00
2018-09-25T05:03:28.112Z,12.00
2018-09-25T05:04:28.081Z,8.00
2018-09-25T05:05:28.070Z,12.00
2018-09-25T05:06:28.075Z,12.00
2018-09-25T05:09:29.191Z,24.00
2018-09-25T05:10:28.020Z,28.00
2018-09-25T05:11:28.002Z,28.00
2018-09-25T05:12:28.000Z,36.00
2018-09-25T05:13:28.011Z,40.00
2018-09-25T05:14:27.974Z,44.00
2018-09-25T05:15:27.956Z,52.00
2018-09-25T05:17:29.081Z,64.00
2018-09-25T05:18:27.943Z,72.00
2018-09-25T05:19:27.908Z,80.00
2018-09-25T05:20:27.920Z,88.00
2018-09-25T05:21:27.883Z,96.00
2018-09-25T05:22:27.895Z,104.00
2018-09-25T05:23:27.947Z,120.00
2018-09-25T05:26:28.975Z,152.00
2018-09-25T05:27:27.833Z,164.00
2018-09-25T05:28:27.823Z,176.00
2018-09-25T05:29:27.806Z,196.00
2018-09-25T05:30:27.800Z,208.00
2018-09-25T05:31:27.779Z,224.00
2018-09-25T05:32:27.774Z,240.00
2018-09-25T05:33:27.791Z,260.00
2018-09-25T05:34:27.748Z,276.00
2018-09-25T05:35:27.732Z,296.00
2018-09-25T05:36:27.721Z,312.00
2018-09-25T05:37:27.723Z,328.00
2018-09-25T05:38:27.695Z,348.00
2018-09-25T05:39:27.701Z,368.00
2018-09-25T05:41:28.809Z,408.00
2018-09-25T05:42:27.657Z,428.00
2018-09-25T05:43:27.665Z,448.00
2018-09-25T05:44:27.623Z,468.00
2018-09-25T05:45:27.627Z,484.00
2018-09-25T05:46:27.616Z,504.00
2018-09-25T05:47:27.597Z,528.00
2018-09-25T05:48:27.739Z,548.00
2018-09-25T05:49:27.589Z,572.00
2018-09-25T05:50:27.555Z,588.00
2018-09-25T05:51:27.544Z,608.00
2018-09-25T05:52:27.533Z,628.00
2018-09-25T05:53:27.534Z,644.00
2018-09-25T05:54:27.540Z,672.00
2018-09-25T05:55:27.548Z,692.00
2018-09-25T05:56:27.489Z,716.00
2018-09-25T05:57:27.476Z,736.00
2018-09-25T05:58:27.473Z,756.00
2018-09-25T06:01:28.586Z,812.00
2018-09-25T06:02:27.429Z,832.00
2018-09-25T06:03:27.422Z,852.00
2018-09-25T06:04:27.416Z,872.00
2018-09-25T06:05:27.397Z,892.00
2018-09-25T06:06:27.381Z,916.00
2018-09-25T06:08:28.510Z,952.00
2018-09-25T06:09:27.442Z,972.00
2018-09-25T06:10:27.367Z,988.00
2018-09-25T06:11:27.322Z,1008.00
2018-09-25T06:12:27.311Z,1024.00
2018-09-25T06:14:28.458Z,1068.00
2018-09-25T06:15:27.305Z,1092.00
2018-09-25T06:16:27.258Z,1108.00
2018-09-25T06:17:27.253Z,1128.00
2018-09-25T06:18:27.240Z,1148.00
2018-09-25T06:19:27.239Z,1164.00
2018-09-25T06:20:27.239Z,1188.00
2018-09-25T06:21:27.207Z,1200.00
2018-09-25T06:22:27.197Z,1216.00
2018-09-25T06:23:27.188Z,1232.00
2018-09-25T06:24:27.173Z,1252.00
2018-09-25T06:25:27.178Z,1268.00
2018-09-25T06:26:27.151Z,1284.00
2018-09-25T06:27:27.150Z,1312.00
2018-09-25T06:28:27.140Z,1328.00
2018-09-25T06:29:27.114Z,1340.00
2018-09-25T06:30:27.150Z,1352.00
2018-09-25T06:31:27.102Z,1372.00
2018-09-25T06:32:27.095Z,1384.00
2018-09-25T06:33:27.072Z,1396.00
2018-09-25T06:34:27.137Z,1400.00
2018-09-25T06:35:27.100Z,1424.00
2018-09-25T06:36:27.054Z,1440.00
2018-09-25T06:37:27.128Z,1464.00
2018-09-25T06:38:27.021Z,1476.00
2018-09-25T06:39:27.006Z,1484.00
2018-09-25T06:40:27.007Z,1504.00
2018-09-25T06:41:27.000Z,1516.00
2018-09-25T06:42:26.971Z,1532.00
2018-09-25T06:43:26.959Z,1544.00
2018-09-25T06:45:28.104Z,1572.00
2018-09-25T06:46:26.944Z,1584.00
2018-09-25T06:47:26.920Z,1596.00
2018-09-25T06:49:28.061Z,1620.00
2018-09-25T06:50:26.880Z,1636.00
2018-09-25T06:51:26.905Z,1644.00
2018-09-25T06:52:26.858Z,1656.00
2018-09-25T06:53:26.858Z,1672.00
2018-09-25T06:54:26.833Z,1688.00
2018-09-25T06:55:26.842Z,1704.00
2018-09-25T06:56:26.842Z,1720.00
2018-09-25T06:57:26.807Z,1740.00
2018-09-25T06:58:26.792Z,1764.00
2018-09-25T06:59:26.786Z,1784.00
2018-09-25T07:00:26.772Z,1812.00
2018-09-25T07:01:26.788Z,1836.00
2018-09-25T07:02:26.749Z,1860.00
2018-09-25T07:03:26.738Z,1872.00
2018-09-25T07:04:26.738Z,1892.00
2018-09-25T07:05:26.714Z,1908.00
2018-09-25T07:06:26.725Z,1908.00
2018-09-25T07:07:26.692Z,1920.00
2018-09-25T07:08:26.692Z,1932.00
2018-09-25T07:09:26.673Z,1948.00
2018-09-25T07:10:26.760Z,1968.00
2018-09-25T07:12:27.809Z,1984.00
2018-09-25T07:13:26.624Z,2000.00
2018-09-25T07:14:26.614Z,2004.00
2018-09-25T07:15:26.609Z,2028.00
2018-09-25T07:16:26.596Z,2052.00
2018-09-25T07:18:27.747Z,2096.00
2018-09-25T07:19:26.556Z,2116.00
2018-09-25T07:20:26.549Z,2136.00
2018-09-25T07:22:27.751Z,2152.00
2018-09-25T07:23:26.516Z,2176.00
2018-09-25T07:24:26.524Z,2176.00
2018-09-25T07:25:26.494Z,2188.00
2018-09-25T07:26:26.481Z,2188.00
2018-09-25T07:27:26.486Z,2200.00
2018-09-25T07:28:26.453Z,2212.00
2018-09-25T07:29:26.482Z,2224.00
2018-09-25T07:30:26.437Z,2244.00
2018-09-25T07:31:26.432Z,2260.00
2018-09-25T07:32:26.433Z,2284.00
2018-09-25T07:33:26.398Z,2308.00
2018-09-25T07:34:26.403Z,2344.00
2018-09-25T07:35:26.373Z,2372.00
2018-09-25T07:36:26.368Z,2400.00
2018-09-25T07:37:26.391Z,2412.00
2018-09-25T07:38:26.348Z,2436.00
2018-09-25T07:39:26.339Z,2444.00
2018-09-25T07:40:26.319Z,2456.00
2018-09-25T07:41:26.316Z,2488.00
2018-09-25T07:42:26.340Z,2500.00
2018-09-25T07:44:27.419Z,2520.00
2018-09-25T07:45:26.263Z,2544.00
2018-09-25T07:46:26.267Z,2572.00
2018-09-25T07:47:26.241Z,2596.00
2018-09-25T07:48:26.246Z,2636.00
2018-09-25T07:49:26.233Z,2672.00
2018-09-25T07:50:26.210Z,2708.00
2018-09-25T07:52:27.337Z,4036.00
2018-09-25T07:53:26.204Z,9272.00
2018-09-25T07:54:26.168Z,9464.00
2018-09-25T07:55:26.213Z,3940.00
2018-09-25T07:56:26.155Z,3348.00
2018-09-25T07:57:26.139Z,19616.00
2018-09-25T07:59:27.254Z,40256.00
2018-09-25T08:00:26.101Z,29248.00
2018-09-25T08:01:26.094Z,25280.00
2018-09-25T08:02:26.072Z,30048.00
2018-09-25T08:03:26.093Z,26624.00
2018-09-25T08:04:26.049Z,17760.00
2018-09-25T08:05:26.037Z,24640.00
2018-09-25T08:06:26.030Z,41504.00
2018-09-25T08:07:26.019Z,48576.00
2018-09-25T08:08:26.034Z,42016.00
2018-09-25T08:09:25.995Z,31328.00
2018-09-25T08:10:25.982Z,20384.00
2018-09-25T08:11:25.969Z,8940.00
2018-09-25T08:12:25.970Z,16416.00
2018-09-25T08:13:25.981Z,43264.00
2018-09-25T08:14:25.954Z,43680.00
2018-09-25T08:15:25.995Z,44352.00
2018-09-25T08:16:25.917Z,40992.00
2018-09-25T08:17:25.919Z,29824.00
2018-09-25T08:18:25.924Z,32576.00
2018-09-25T08:19:25.892Z,38848.00
2018-09-25T08:20:25.873Z,30112.00
2018-09-25T08:21:25.859Z,13472.00
2018-09-25T08:22:25.851Z,20096.00
2018-09-25T08:23:25.887Z,27232.00
2018-09-25T08:24:25.859Z,42048.00
2018-09-25T08:25:25.834Z,41312.00
2018-09-25T08:27:26.991Z,38112.00
2018-09-25T08:28:25.780Z,38080.00
2018-09-25T08:29:25.813Z,41728.00
2018-09-25T08:30:25.790Z,44928.00
2018-09-25T08:31:25.770Z,49952.00
2018-09-25T08:32:25.745Z,62496.00
2018-09-25T08:33:25.733Z,66400.00
2018-09-25T08:34:25.771Z,63904.00
2018-09-25T08:35:25.700Z,55808.00
2018-09-25T08:36:25.710Z,30496.00
2018-09-25T08:37:25.695Z,23968.00
2018-09-25T08:38:25.731Z,20608.00
2018-09-25T08:39:25.850Z,19104.00
2018-09-25T08:40:25.652Z,18592.00
2018-09-25T08:41:25.655Z,11492.00
2018-09-25T08:42:25.634Z,9680.00
2018-09-25T08:43:25.619Z,8428.00
2018-09-25T08:44:25.618Z,6772.00
2018-09-25T08:45:25.589Z,15584.00
2018-09-25T08:46:25.592Z,31328.00
2018-09-25T08:47:25.583Z,26912.00
2018-09-25T08:48:25.573Z,10680.00
2018-09-25T08:49:25.583Z,10236.00
2018-09-25T08:50:25.544Z,5548.00
2018-09-25T08:51:25.522Z,3284.00
2018-09-25T08:52:25.528Z,3328.00
2018-09-25T08:53:25.538Z,3704.00
2018-09-25T08:54:25.494Z,4040.00
2018-09-25T08:55:25.499Z,7516.00
2018-09-25T08:56:25.470Z,9128.00
2018-09-25T08:57:25.460Z,5116.00
2018-09-25T08:58:25.452Z,7052.00
2018-09-25T08:59:25.434Z,6480.00
2018-09-25T09:00:25.468Z,5272.00
2018-09-25T09:01:25.414Z,4208.00
2018-09-25T09:02:25.427Z,4564.00
2018-09-25T09:04:26.569Z,7760.00
2018-09-25T09:05:25.389Z,6312.00
2018-09-25T09:06:25.360Z,6964.00
2018-09-25T09:07:25.354Z,5188.00
2018-09-25T09:08:25.384Z,3440.00
2018-09-25T09:11:26.440Z,10048.00
2018-09-25T09:12:25.283Z,11456.00
2018-09-25T09:13:25.289Z,23328.00
2018-09-25T09:14:25.274Z,29248.00
2018-09-25T09:16:26.408Z,10788.00
2018-09-25T09:17:25.230Z,7392.00
2018-09-25T09:18:25.231Z,6056.00
2018-09-25T09:19:25.207Z,6708.00
2018-09-25T09:20:25.219Z,4704.00
2018-09-25T09:21:25.203Z,4980.00
2018-09-25T09:22:25.195Z,7440.00
2018-09-25T09:23:25.164Z,5888.00
2018-09-25T09:24:25.148Z,4140.00
2018-09-25T09:25:25.189Z,3784.00
2018-09-25T09:26:25.127Z,8924.00
2018-09-25T09:27:25.119Z,19104.00
2018-09-25T09:28:25.107Z,17568.00
2018-09-25T09:29:25.094Z,11708.00
2018-09-25T09:30:25.093Z,12624.00
2018-09-25T09:31:25.088Z,9528.00
2018-09-25T09:32:25.113Z,10868.00
2018-09-25T09:33:25.056Z,9756.00
2018-09-25T09:34:25.039Z,10480.00
2018-09-25T09:35:25.040Z,6020.00
2018-09-25T09:36:25.047Z,5264.00
2018-09-25T09:37:25.002Z,5728.00
2018-09-25T09:38:25.000Z,4304.00
2018-09-25T09:39:24.975Z,3796.00
2018-09-25T09:40:24.968Z,6652.00
2018-09-25T09:41:25.123Z,15552.00
2018-09-25T09:42:24.954Z,15872.00
2018-09-25T09:43:24.941Z,10552.00
2018-09-25T09:44:24.944Z,12088.00
2018-09-25T09:45:24.913Z,10932.00
2018-09-25T09:46:24.920Z,11608.00
2018-09-25T09:47:24.913Z,22272.00
2018-09-25T09:48:24.877Z,27552.00
2018-09-25T09:49:24.867Z,33472.00
2018-09-25T09:50:24.913Z,34976.00
2018-09-25T09:51:24.846Z,29536.00
2018-09-25T09:52:24.858Z,26112.00
2018-09-25T09:54:25.958Z,17440.00
2018-09-25T09:55:24.820Z,21024.00
2018-09-25T09:56:24.922Z,18688.00
2018-09-25T09:57:24.778Z,19680.00
2018-09-25T09:58:24.768Z,29024.00
2018-09-25T09:59:24.753Z,35072.00
2018-09-25T10:00:24.745Z,36032.00
2018-09-25T10:01:24.774Z,33440.00
2018-09-25T10:02:24.723Z,27616.00
2018-09-25T10:03:24.712Z,27200.00
2018-09-25T10:04:24.701Z,21632.00
2018-09-25T10:05:24.689Z,17792.00
2018-09-25T10:06:24.694Z,23104.00
2018-09-25T10:07:24.711Z,28384.00
2018-09-25T10:08:24.660Z,30528.00
2018-09-25T10:09:24.657Z,30912.00
2018-09-25T10:10:24.636Z,30240.00
2018-09-25T10:11:24.623Z,20928.00
2018-09-25T10:12:24.690Z,31072.00
2018-09-25T10:13:24.595Z,25056.00
2018-09-25T10:14:24.588Z,27808.00
2018-09-25T10:15:24.582Z,29856.00
2018-09-25T10:16:24.576Z,29984.00
2018-09-25T10:17:24.578Z,28704.00
2018-09-25T10:18:24.566Z,22752.00
2018-09-25T10:19:24.537Z,16608.00
2018-09-25T10:20:24.533Z,9916.00
2018-09-25T10:21:24.511Z,8356.00
2018-09-25T10:22:24.531Z,11056.00
2018-09-25T10:23:24.486Z,4884.00
2018-09-25T10:24:24.493Z,4396.00
2018-09-25T10:25:24.472Z,4128.00
2018-09-25T10:26:24.457Z,3680.00
2018-09-25T10:27:24.449Z,7732.00
2018-09-25T10:28:24.458Z,3812.00
2018-09-25T10:29:24.426Z,5156.00
2018-09-25T10:30:24.410Z,10380.00
2018-09-25T10:31:24.399Z,10008.00
2018-09-25T10:32:24.402Z,7340.00
2018-09-25T10:33:24.415Z,8812.00
2018-09-25T10:34:24.397Z,15648.00
2018-09-25T10:35:24.360Z,18464.00
2018-09-25T10:36:24.345Z,16864.00
2018-09-25T10:37:24.336Z,14176.00
2018-09-25T10:38:24.351Z,11396.00
2018-09-25T10:39:24.325Z,11056.00
2018-09-25T10:40:24.308Z,11040.00
2018-09-25T10:41:24.303Z,10008.00
2018-09-25T10:42:24.280Z,10240.00
2018-09-25T10:43:24.271Z,9912.00
2018-09-25T10:44:24.294Z,9480.00
2018-09-25T10:45:24.247Z,9112.00
2018-09-25T10:46:24.242Z,8956.00
2018-09-25T10:47:24.223Z,9056.00
2018-09-25T10:48:24.286Z,8696.00
2018-09-25T10:49:24.200Z,7772.00
2018-09-25T10:50:24.190Z,6792.00
2018-09-25T10:51:24.191Z,5744.00
2018-09-25T10:52:24.173Z,4620.00
2018-09-25T10:53:24.177Z,3684.00
2018-09-25T10:54:24.150Z,3420.00
2018-09-25T10:55:24.175Z,3396.00
2018-09-25T10:56:24.124Z,3520.00
2018-09-25T10:57:24.130Z,3568.00
2018-09-25T10:58:24.140Z,3560.00
2018-09-25T10:59:24.098Z,3528.00
2018-09-25T11:00:24.092Z,3476.00
2018-09-25T11:01:24.070Z,3288.00
2018-09-25T11:02:24.061Z,3324.00
2018-09-25T11:03:24.051Z,3284.00
2018-09-25T11:04:24.060Z,3200.00
2018-09-25T11:05:24.032Z,3104.00
2018-09-25T11:06:24.013Z,3052.00
2018-09-25T11:07:24.000Z,2988.00
2018-09-25T11:08:23.999Z,2976.00
2018-09-25T11:09:24.000Z,3100.00
2018-09-25T11:10:23.974Z,3800.00
2018-09-25T11:11:23.971Z,5860.00
2018-09-25T11:12:23.951Z,7400.00
2018-09-25T11:13:23.938Z,8356.00
2018-09-25T11:14:23.945Z,8692.00
2018-09-25T11:15:23.920Z,9236.00
2018-09-25T11:16:23.904Z,9116.00
2018-09-25T11:17:23.905Z,7908.00
2018-09-25T11:18:23.889Z,7396.00
2018-09-25T11:19:23.899Z,6020.00
2018-09-25T11:20:23.896Z,5904.00
2018-09-25T11:21:23.846Z,5768.00
2018-09-25T11:22:23.855Z,5828.00
2018-09-25T11:23:23.824Z,5736.00
2018-09-25T11:25:25.049Z,5260.00
2018-09-25T11:26:24.518Z,4776.00
2018-09-25T11:27:23.782Z,4540.00
2018-09-25T11:28:23.777Z,4180.00
2018-09-25T11:29:23.815Z,4092.00
2018-09-25T11:30:23.782Z,3772.00
2018-09-25T11:31:23.759Z,3564.00
2018-09-25T11:32:23.740Z,3640.00
2018-09-25T11:33:23.714Z,3632.00
2018-09-25T11:34:23.744Z,3588.00
2018-09-25T11:35:23.748Z,3600.00
2018-09-25T11:36:23.686Z,3672.00
2018-09-25T11:37:23.676Z,3800.00
2018-09-25T11:38:23.674Z,3980.00
2018-09-25T11:39:23.652Z,4168.00
2018-09-25T11:40:23.661Z,4484.00
2018-09-25T11:41:23.765Z,4680.00
2018-09-25T11:42:23.629Z,4860.00
2018-09-25T11:43:23.608Z,4960.00
2018-09-25T11:44:23.603Z,5076.00
2018-09-25T11:45:23.586Z,5108.00
2018-09-25T11:46:23.583Z,5028.00
2018-09-25T11:47:23.561Z,5028.00
2018-09-25T11:48:23.547Z,4908.00
2018-09-25T11:49:23.549Z,4992.00
2018-09-25T11:50:23.559Z,4740.00
2018-09-25T11:51:23.518Z,4808.00
2018-09-25T11:52:23.520Z,4788.00
2018-09-25T11:53:23.491Z,5012.00
2018-09-25T11:54:23.488Z,5356.00
2018-09-25T11:55:23.467Z,5492.00
2018-09-25T11:56:23.519Z,5632.00
2018-09-25T11:57:23.451Z,5732.00
2018-09-25T11:58:23.445Z,5700.00
2018-09-25T11:59:23.433Z,5780.00
2018-09-25T12:00:23.430Z,5916.00
2018-09-25T12:01:23.420Z,6032.00
2018-09-25T12:03:24.519Z,5968.00
2018-09-25T12:04:23.384Z,6024.00
2018-09-25T12:05:23.372Z,5840.00
2018-09-25T12:06:23.416Z,6028.00
2018-09-25T12:07:23.360Z,6224.00
2018-09-25T12:08:23.330Z,6328.00
2018-09-25T12:09:23.318Z,6432.00
2018-09-25T12:10:23.301Z,6468.00
2018-09-25T12:11:23.297Z,6500.00
2018-09-25T12:12:23.390Z,6144.00
2018-09-25T12:13:23.263Z,5908.00
2018-09-25T12:14:23.262Z,5832.00
2018-09-25T12:15:23.275Z,5412.00
2018-09-25T12:16:23.244Z,5488.00
2018-09-25T12:17:23.253Z,5232.00
2018-09-25T12:18:23.210Z,5000.00
2018-09-25T12:19:23.195Z,4996.00
2018-09-25T12:20:23.183Z,4928.00
2018-09-25T12:21:23.173Z,4700.00
2018-09-25T12:22:23.191Z,4668.00
2018-09-25T12:23:23.195Z,4808.00
2018-09-25T12:24:23.246Z,4828.00
2018-09-25T12:25:23.142Z,4944.00
2018-09-25T12:26:23.130Z,4988.00
2018-09-25T12:27:23.128Z,3196.00
2018-09-25T12:28:23.152Z,3252.00
2018-09-25T12:29:23.090Z,3372.00
2018-09-25T12:30:23.083Z,3348.00
2018-09-25T12:31:23.061Z,3560.00
2018-09-25T12:32:23.100Z,3628.00
2018-09-25T12:33:23.063Z,3556.00
2018-09-25T12:34:23.053Z,3384.00
2018-09-25T12:35:23.018Z,3040.00
2018-09-25T12:36:23.015Z,2900.00
2018-09-25T12:37:23.002Z,2812.00
2018-09-25T12:38:23.021Z,2696.00
2018-09-25T12:39:22.976Z,2688.00
2018-09-25T12:40:22.958Z,2656.00
2018-09-25T12:41:22.960Z,2656.00
2018-09-25T12:42:22.944Z,2596.00
2018-09-25T12:43:22.931Z,2604.00
2018-09-25T12:44:22.947Z,2628.00
2018-09-25T12:45:22.925Z,2656.00
2018-09-25T12:46:22.892Z,2720.00
2018-09-25T12:47:22.879Z,4200.00
2018-09-25T12:48:22.884Z,4580.00
2018-09-25T12:49:22.883Z,4652.00
2018-09-25T12:50:22.858Z,4592.00
2018-09-25T12:51:22.835Z,4460.00
2018-09-25T12:53:23.979Z,4320.00
2018-09-25T12:54:22.822Z,4444.00
2018-09-25T12:55:22.792Z,4392.00
2018-09-25T12:56:22.788Z,4292.00
2018-09-25T12:57:22.770Z,4228.00
2018-09-25T12:58:22.757Z,4344.00
2018-09-25T13:00:23.900Z,4156.00
2018-09-25T13:01:22.735Z,4224.00
2018-09-25T13:02:22.716Z,3012.00
2018-09-25T13:03:22.714Z,3068.00
2018-09-25T13:04:22.727Z,3072.00
2018-09-25T13:05:22.702Z,3008.00
2018-09-25T13:06:22.673Z,2940.00
2018-09-25T13:07:22.658Z,2888.00
2018-09-25T13:08:22.664Z,3180.00
2018-09-25T13:09:22.662Z,3260.00
2018-09-25T13:10:22.651Z,3232.00
2018-09-25T13:11:22.630Z,3176.00
2018-09-25T13:12:22.605Z,3172.00
2018-09-25T13:13:22.594Z,3520.00
2018-09-25T13:14:22.585Z,3056.00
2018-09-25T13:15:22.592Z,3012.00
2018-09-25T13:16:22.567Z,3296.00
2018-09-25T13:17:22.543Z,3388.00
2018-09-25T13:18:22.544Z,3440.00
2018-09-25T13:19:22.520Z,4232.00
2018-09-25T13:20:22.540Z,4572.00
2018-09-25T13:21:22.505Z,4608.00
2018-09-25T13:22:22.489Z,4560.00
2018-09-25T13:23:22.501Z,4596.00
2018-09-25T13:24:22.501Z,4628.00
2018-09-25T13:25:22.497Z,4588.00
2018-09-25T13:26:22.467Z,4552.00
2018-09-25T13:27:22.430Z,4356.00
2018-09-25T13:28:22.432Z,4220.00
2018-09-25T13:29:22.433Z,4060.00
2018-09-25T13:30:22.430Z,4200.00
2018-09-25T13:31:22.397Z,4212.00
2018-09-25T13:32:22.377Z,4112.00
2018-09-25T13:33:22.427Z,4128.00
2018-09-25T13:34:22.353Z,4136.00
2018-09-25T13:35:22.364Z,4152.00
2018-09-25T13:36:22.362Z,4292.00
2018-09-25T13:37:22.330Z,4312.00
2018-09-25T13:38:22.309Z,4208.00
2018-09-25T13:39:22.296Z,4132.00
2018-09-25T13:40:22.284Z,4140.00
2018-09-25T13:41:22.307Z,3884.00
2018-09-25T13:43:23.422Z,4332.00
2018-09-25T13:44:22.237Z,4400.00
2018-09-25T13:45:22.243Z,4364.00
2018-09-25T13:46:22.251Z,4328.00
2018-09-25T13:47:22.200Z,4348.00
2018-09-25T13:48:22.190Z,4268.00
2018-09-25T13:49:22.179Z,4308.00